Royal Oak, MI (48067)

09:38 EDT 1. Září 2014 (GMT -0400)
Chili Dog | Change Station
CLOSE
Current Station
Osobní povětrnostní stanice
Location: Madison Heights, MI
Nadmořská výška: 633 ft
Poblíž povětrnostní stanice

Výška 633 ft 42.50 °N, 83.11 °W | Updated 8 seconds ago

Overcast
Zataženo
75.2 °F
Pocit jako 75 °F
S
5.4
Vítr proměnlivý Vítr od jižní
Gusts 5.4 mil/h

Dnes
Vysoké -- | Nízké -- °F
--% Možnost srážek
Včera
Vysoké -- | Nízké -- °F
Precip. -- inčů
6:57 AM 8:06 PM
Dorůstající srpek, 41% visible
Tlak 29.93 inčů
Viditelnost 5.0 mílí
Zataženo Zataženo 500 ft
Tepelný index 75 °F
Rosný bod 72 °F
Vlhkost 89%
Dešťové srážky 0.00 inčů
Sněhová pokrývka Není k dispozici
UV záření 1 ze 12
Pyl 8.00 ze 12
Ozón Dobrý
PM2.5 Střední
Flu Activity Není k dispozici
METAR KVLL 011315Z AUTO 19005KT 5SM BR OVC005 23/20 A2993 RMK AO2 T02250204

More Conditions Fewer Conditions

Tlak 29.93 inčů
Viditelnost 5.0 mílí
Zataženo Zataženo 500 ft
Tepelný index 75 °F
Rosný bod 72 °F
Vlhkost 89%
Dešťové srážky 0.00 inčů
Sněhová pokrývka Není k dispozici
UV záření 1 ze 12
Pyl 8.00 ze 12
Ozón Dobrý
PM2.5 Střední
Flu Activity Není k dispozici
METAR KVLL 011315Z AUTO 19005KT 5SM BR OVC005 23/20 A2993 RMK AO2 T02250204

More Conditions Fewer Conditions

10-Day Weather Forecast

Almanac

Astronomie

Sep. 01, 2014 Východ Západ
Skutečný čas 06:57 EDT 20:06 EDT
Občanský soumrak 06:28 EDT 20:35 EDT
Námořní soumrak 05:53 EDT 21:10 EDT
Astronomický soumrak 05:17 EDT 21:46 EDT
Měsíc 13:50 EDT 23:58 EDT
Délka denního světla 14h 06m
Délka dne
13h 09m
Tomorrow will be 2m 45s shorter.
Dorůstající srpek, 41% of the Moon is Illuminated
Dnes
Dorůstající srpek
Zář 2
První čtvrť
Zář 8
Úplněk
Zář 15
Ubývající
Zář 24
Nov

Dnešní extrémy

State Highs State Lows

Community

WunderPhotos

Upload Photos

1,749,217 snímků staženo!

Nearby

Kvalita ovzduší

  Kvalita ovzduší Index kvality ovzduší Polutant
Včera Dobrý
PM10
Včera Dobrý
OZONE
Nyní Střední
PM2.5
Nyní Dobrý
OZONE
Pondělí Dobrý
OZONE
Pondělí Dobrý
PM2.5
Úterý Dobrý
OZONE
Úterý Dobrý
PM2.5

Výška sněhu

Station Hloubka Nadmořská výška
Žádný nový sníh nebyl hlášen

Seizmická činnost

Město Distance Mag. Čas & datum
Žádné zemětřesení v okolí nebylo hlášeno
Minimální zobrazený rozsah je 2.5.

Pobřežní teplota vody

Lokalita Teplota
Marblehead, OH 73.0 °F

Poblíž povětrnostní stanice